sensor_id;sensor_type;location;lat;lon;timestamp;P1;P2;P0
74589;PMS5003;63890;56.162;40.308;2022-09-29T00:01:47;3.00;2.00;1.00
74589;PMS5003;63890;56.162;40.308;2022-09-29T00:03:47;3.00;2.00;2.00
74589;PMS5003;63890;56.162;40.308;2022-09-29T00:05:50;3.50;3.00;1.00
74589;PMS5003;63890;56.162;40.308;2022-09-29T00:07:51;2.50;2.00;1.00
74589;PMS5003;63890;56.162;40.308;2022-09-29T00:09:51;2.00;2.00;1.00
74589;PMS5003;63890;56.162;40.308;2022-09-29T00:11:55;2.25;2.25;0.25
74589;PMS5003;63890;56.162;40.308;2022-09-29T00:13:55;3.50;1.75;0.75
74589;PMS5003;63890;56.162;40.308;2022-09-29T00:15:59;1.50;1.50;0.25
74589;PMS5003;63890;56.162;40.308;2022-09-29T00:18:00;2.00;2.00;1.00
74589;PMS5003;63890;56.162;40.308;2022-09-29T00:20:01;2.00;2.00;0.75
74589;PMS5003;63890;56.162;40.308;2022-09-29T00:22:01;3.00;3.00;2.00
74589;PMS5003;63890;56.162;40.308;2022-09-29T00:24:01;1.25;1.25;0.25
74589;PMS5003;63890;56.162;40.308;2022-09-29T00:28:05;4.00;2.50;1.25
74589;PMS5003;63890;56.162;40.308;2022-09-29T00:30:06;2.00;1.75;0.75
74589;PMS5003;63890;56.162;40.308;2022-09-29T00:32:06;2.50;2.50;1.00
74589;PMS5003;63890;56.162;40.308;2022-09-29T00:34:06;1.00;1.00;0.25
74589;PMS5003;63890;56.162;40.308;2022-09-29T00:36:09;2.75;2.00;1.25
74589;PMS5003;63890;56.162;40.308;2022-09-29T00:38:09;3.00;2.75;1.75
74589;PMS5003;63890;56.162;40.308;2022-09-29T00:40:10;3.25;2.00;1.75
74589;PMS5003;63890;56.162;40.308;2022-09-29T00:42:11;5.00;3.00;1.00
74589;PMS5003;63890;56.162;40.308;2022-09-29T00:46:12;3.00;3.00;2.00
74589;PMS5003;63890;56.162;40.308;2022-09-29T00:48:14;3.25;3.25;1.50
74589;PMS5003;63890;56.162;40.308;2022-09-29T00:54:20;4.25;1.75;0.50
74589;PMS5003;63890;56.162;40.308;2022-09-29T00:56:22;3.25;3.25;1.25
74589;PMS5003;63890;56.162;40.308;2022-09-29T00:58:26;6.75;3.75;1.75
74589;PMS5003;63890;56.162;40.308;2022-09-29T01:00:27;2.75;2.25;1.25
74589;PMS5003;63890;56.162;40.308;2022-09-29T01:02:28;2.50;2.50;2.00
74589;PMS5003;63890;56.162;40.308;2022-09-29T01:04:30;5.00;3.40;1.80
74589;PMS5003;63890;56.162;40.308;2022-09-29T01:06:41;4.50;3.00;2.00
74589;PMS5003;63890;56.162;40.308;2022-09-29T01:10:43;2.50;2.25;1.25
74589;PMS5003;63890;56.162;40.308;2022-09-29T01:12:44;2.75;2.75;1.75
74589;PMS5003;63890;56.162;40.308;2022-09-29T01:14:46;3.00;2.75;2.00
74589;PMS5003;63890;56.162;40.308;2022-09-29T01:16:46;4.75;3.25;2.25
74589;PMS5003;63890;56.162;40.308;2022-09-29T01:18:47;2.75;2.75;1.75
74589;PMS5003;63890;56.162;40.308;2022-09-29T01:20:59;4.50;3.50;1.75
74589;PMS5003;63890;56.162;40.308;2022-09-29T01:32:03;3.25;3.25;2.00
74589;PMS5003;63890;56.162;40.308;2022-09-29T01:34:11;3.00;3.00;1.00
74589;PMS5003;63890;56.162;40.308;2022-09-29T01:36:28;3.75;3.75;0.75
74589;PMS5003;63890;56.162;40.308;2022-09-29T01:42:35;3.50;3.50;1.25
74589;PMS5003;63890;56.162;40.308;2022-09-29T01:44:41;3.25;3.25;1.00
74589;PMS5003;63890;56.162;40.308;2022-09-29T01:48:51;3.75;3.75;1.75
74589;PMS5003;63890;56.162;40.308;2022-09-29T01:50:55;3.25;2.75;1.25
74589;PMS5003;63890;56.162;40.308;2022-09-29T01:52:59;2.50;2.50;1.00
74589;PMS5003;63890;56.162;40.308;2022-09-29T01:55:07;3.00;3.00;1.75
74589;PMS5003;63890;56.162;40.308;2022-09-29T01:57:11;5.00;5.00;3.00
74589;PMS5003;63890;56.162;40.308;2022-09-29T01:59:22;2.00;1.50;1.00
74589;PMS5003;63890;56.162;40.308;2022-09-29T02:01:25;5.75;4.00;1.75
74589;PMS5003;63890;56.162;40.308;2022-09-29T02:03:29;3.50;3.50;1.75
74589;PMS5003;63890;56.162;40.308;2022-09-29T02:07:44;3.75;2.75;1.75
74589;PMS5003;63890;56.162;40.308;2022-09-29T02:09:47;4.00;4.00;2.00
74589;PMS5003;63890;56.162;40.308;2022-09-29T02:11:49;4.50;4.50;2.25
74589;PMS5003;63890;56.162;40.308;2022-09-29T02:15:51;6.50;6.00;3.00
74589;PMS5003;63890;56.162;40.308;2022-09-29T02:17:53;6.00;5.00;2.50
74589;PMS5003;63890;56.162;40.308;2022-09-29T02:19:56;4.75;4.75;2.75
74589;PMS5003;63890;56.162;40.308;2022-09-29T02:21:56;2.50;2.50;1.25
74589;PMS5003;63890;56.162;40.308;2022-09-29T02:23:57;4.00;4.00;2.25
74589;PMS5003;63890;56.162;40.308;2022-09-29T02:25:57;3.25;3.25;1.25
74589;PMS5003;63890;56.162;40.308;2022-09-29T02:27:59;3.75;3.75;1.75
74589;PMS5003;63890;56.162;40.308;2022-09-29T02:29:59;3.25;3.25;1.75
74589;PMS5003;63890;56.162;40.308;2022-09-29T02:32:00;5.00;5.00;3.00
74589;PMS5003;63890;56.162;40.308;2022-09-29T02:34:02;2.75;2.75;1.75
74589;PMS5003;63890;56.162;40.308;2022-09-29T02:38:03;4.50;4.50;3.75
74589;PMS5003;63890;56.162;40.308;2022-09-29T02:59:29;4.00;3.25;1.75
74589;PMS5003;63890;56.162;40.308;2022-09-29T03:01:38;3.00;3.00;1.75
74589;PMS5003;63890;56.162;40.308;2022-09-29T03:03:45;7.75;6.50;4.00
74589;PMS5003;63890;56.162;40.308;2022-09-29T03:05:46;5.50;4.75;2.75
74589;PMS5003;63890;56.162;40.308;2022-09-29T03:07:46;6.00;6.00;2.00
74589;PMS5003;63890;56.162;40.308;2022-09-29T03:09:47;7.50;4.00;2.25
74589;PMS5003;63890;56.162;40.308;2022-09-29T03:11:48;7.50;4.25;3.00
74589;PMS5003;63890;56.162;40.308;2022-09-29T03:13:48;5.75;5.75;2.50
74589;PMS5003;63890;56.162;40.308;2022-09-29T03:15:48;7.50;4.00;2.00
74589;PMS5003;63890;56.162;40.308;2022-09-29T03:17:49;4.25;4.25;2.25
74589;PMS5003;63890;56.162;40.308;2022-09-29T03:19:49;5.25;5.25;2.75
74589;PMS5003;63890;56.162;40.308;2022-09-29T03:21:50;6.75;5.00;3.25
74589;PMS5003;63890;56.162;40.308;2022-09-29T03:23:50;7.75;7.75;3.75
74589;PMS5003;63890;56.162;40.308;2022-09-29T03:25:50;7.00;5.75;3.00
74589;PMS5003;63890;56.162;40.308;2022-09-29T03:27:51;6.75;5.00;3.00
74589;PMS5003;63890;56.162;40.308;2022-09-29T03:29:51;7.75;5.00;3.00
74589;PMS5003;63890;56.162;40.308;2022-09-29T03:31:52;5.00;4.00;3.00
74589;PMS5003;63890;56.162;40.308;2022-09-29T03:33:52;4.50;4.50;3.25
74589;PMS5003;63890;56.162;40.308;2022-09-29T03:35:53;5.00;5.00;3.75
74589;PMS5003;63890;56.162;40.308;2022-09-29T03:37:56;5.25;5.25;2.25
74589;PMS5003;63890;56.162;40.308;2022-09-29T03:39:57;6.25;5.75;3.00
74589;PMS5003;63890;56.162;40.308;2022-09-29T03:41:57;7.25;7.25;3.75
74589;PMS5003;63890;56.162;40.308;2022-09-29T03:43:58;5.00;4.25;2.50
74589;PMS5003;63890;56.162;40.308;2022-09-29T03:45:58;5.75;4.50;3.00
74589;PMS5003;63890;56.162;40.308;2022-09-29T03:47:59;5.75;4.25;2.00
74589;PMS5003;63890;56.162;40.308;2022-09-29T03:49:59;6.00;6.00;4.00
74589;PMS5003;63890;56.162;40.308;2022-09-29T03:51:59;4.75;4.75;2.25
74589;PMS5003;63890;56.162;40.308;2022-09-29T03:54:01;6.75;5.00;3.25
74589;PMS5003;63890;56.162;40.308;2022-09-29T03:56:02;5.25;5.25;2.25
74589;PMS5003;63890;56.162;40.308;2022-09-29T03:58:02;6.25;4.50;3.25
74589;PMS5003;63890;56.162;40.308;2022-09-29T04:00:03;5.00;5.00;3.00
74589;PMS5003;63890;56.162;40.308;2022-09-29T04:02:03;4.50;4.50;2.75
74589;PMS5003;63890;56.162;40.308;2022-09-29T04:04:03;5.75;4.75;2.50
74589;PMS5003;63890;56.162;40.308;2022-09-29T04:06:05;5.00;5.00;2.00
74589;PMS5003;63890;56.162;40.308;2022-09-29T04:08:06;4.75;4.75;3.00
74589;PMS5003;63890;56.162;40.308;2022-09-29T04:10:07;4.25;3.25;2.75
74589;PMS5003;63890;56.162;40.308;2022-09-29T04:12:07;5.00;5.00;2.25
74589;PMS5003;63890;56.162;40.308;2022-09-29T04:14:08;6.00;5.75;3.50
74589;PMS5003;63890;56.162;40.308;2022-09-29T04:16:08;5.25;4.25;3.25
74589;PMS5003;63890;56.162;40.308;2022-09-29T04:18:08;4.75;4.00;2.75
74589;PMS5003;63890;56.162;40.308;2022-09-29T04:20:09;5.50;5.50;3.00
74589;PMS5003;63890;56.162;40.308;2022-09-29T04:22:09;4.75;4.75;2.25
74589;PMS5003;63890;56.162;40.308;2022-09-29T04:24:10;7.00;7.00;3.25
74589;PMS5003;63890;56.162;40.308;2022-09-29T04:26:11;4.25;4.25;3.25
74589;PMS5003;63890;56.162;40.308;2022-09-29T04:28:12;6.25;6.00;3.25
74589;PMS5003;63890;56.162;40.308;2022-09-29T04:30:12;6.00;6.00;3.00
74589;PMS5003;63890;56.162;40.308;2022-09-29T04:32:13;6.50;4.75;3.00
74589;PMS5003;63890;56.162;40.308;2022-09-29T04:34:13;5.00;5.00;2.75
74589;PMS5003;63890;56.162;40.308;2022-09-29T04:36:13;4.75;4.75;3.75
74589;PMS5003;63890;56.162;40.308;2022-09-29T04:38:14;6.25;6.00;3.50
74589;PMS5003;63890;56.162;40.308;2022-09-29T04:40:14;6.00;6.00;3.25
74589;PMS5003;63890;56.162;40.308;2022-09-29T04:42:16;5.00;5.00;3.25
74589;PMS5003;63890;56.162;40.308;2022-09-29T04:44:16;4.75;4.75;2.75
74589;PMS5003;63890;56.162;40.308;2022-09-29T04:46:19;9.00;5.50;3.25
74589;PMS5003;63890;56.162;40.308;2022-09-29T04:48:19;7.25;5.75;2.50
74589;PMS5003;63890;56.162;40.308;2022-09-29T04:50:20;5.75;5.25;2.75
74589;PMS5003;63890;56.162;40.308;2022-09-29T04:52:21;6.00;6.00;2.75
74589;PMS5003;63890;56.162;40.308;2022-09-29T04:54:22;2.25;2.25;0.25
74589;PMS5003;63890;56.162;40.308;2022-09-29T04:56:22;5.00;5.00;3.00
74589;PMS5003;63890;56.162;40.308;2022-09-29T04:58:22;5.50;5.50;2.75
74589;PMS5003;63890;56.162;40.308;2022-09-29T05:00:23;6.25;3.75;2.50
74589;PMS5003;63890;56.162;40.308;2022-09-29T05:02:23;6.75;6.50;4.00
74589;PMS5003;63890;56.162;40.308;2022-09-29T05:04:24;6.75;5.00;2.50
74589;PMS5003;63890;56.162;40.308;2022-09-29T05:06:24;4.00;4.00;2.75
74589;PMS5003;63890;56.162;40.308;2022-09-29T05:08:24;7.00;5.50;3.00
74589;PMS5003;63890;56.162;40.308;2022-09-29T05:10:25;4.50;4.25;2.25
74589;PMS5003;63890;56.162;40.308;2022-09-29T05:12:25;6.00;6.00;3.25
74589;PMS5003;63890;56.162;40.308;2022-09-29T05:14:26;5.25;4.50;2.25
74589;PMS5003;63890;56.162;40.308;2022-09-29T05:16:26;6.25;6.25;3.50
74589;PMS5003;63890;56.162;40.308;2022-09-29T05:18:27;3.50;3.50;3.00
74589;PMS5003;63890;56.162;40.308;2022-09-29T05:20:27;5.00;5.00;3.00
74589;PMS5003;63890;56.162;40.308;2022-09-29T05:22:27;7.75;7.75;4.75
74589;PMS5003;63890;56.162;40.308;2022-09-29T05:24:28;6.75;6.75;4.50
74589;PMS5003;63890;56.162;40.308;2022-09-29T05:26:28;5.75;5.00;3.75
74589;PMS5003;63890;56.162;40.308;2022-09-29T05:28:29;3.50;2.25;0.75
74589;PMS5003;63890;56.162;40.308;2022-09-29T05:30:29;6.25;6.00;4.00
74589;PMS5003;63890;56.162;40.308;2022-09-29T05:32:30;7.75;6.25;4.00
74589;PMS5003;63890;56.162;40.308;2022-09-29T05:34:30;8.00;8.00;4.50
74589;PMS5003;63890;56.162;40.308;2022-09-29T05:36:31;6.25;5.50;3.25
74589;PMS5003;63890;56.162;40.308;2022-09-29T05:38:31;6.00;6.00;3.50
74589;PMS5003;63890;56.162;40.308;2022-09-29T05:40:32;5.50;5.50;2.50
74589;PMS5003;63890;56.162;40.308;2022-09-29T05:42:32;4.50;3.75;1.25
74589;PMS5003;63890;56.162;40.308;2022-09-29T05:44:32;7.75;6.75;3.50
74589;PMS5003;63890;56.162;40.308;2022-09-29T05:46:33;7.00;7.00;3.75
74589;PMS5003;63890;56.162;40.308;2022-09-29T05:48:34;5.75;5.75;3.00
74589;PMS5003;63890;56.162;40.308;2022-09-29T05:50:34;9.00;8.25;6.00
74589;PMS5003;63890;56.162;40.308;2022-09-29T05:52:40;6.00;6.00;5.00
74589;PMS5003;63890;56.162;40.308;2022-09-29T05:54:41;10.75;8.75;4.75
74589;PMS5003;63890;56.162;40.308;2022-09-29T05:56:41;6.50;6.50;3.75
74589;PMS5003;63890;56.162;40.308;2022-09-29T05:58:41;6.75;6.75;2.75
74589;PMS5003;63890;56.162;40.308;2022-09-29T06:00:42;4.00;3.50;1.00
74589;PMS5003;63890;56.162;40.308;2022-09-29T06:02:42;7.25;7.00;3.75
74589;PMS5003;63890;56.162;40.308;2022-09-29T06:04:42;6.00;6.00;4.25
74589;PMS5003;63890;56.162;40.308;2022-09-29T06:06:43;9.00;9.00;4.25
74589;PMS5003;63890;56.162;40.308;2022-09-29T06:08:43;8.00;6.25;4.00
74589;PMS5003;63890;56.162;40.308;2022-09-29T06:10:44;8.00;6.50;4.00
74589;PMS5003;63890;56.162;40.308;2022-09-29T06:12:45;6.25;6.25;4.00
74589;PMS5003;63890;56.162;40.308;2022-09-29T06:14:45;7.00;5.00;3.25
74589;PMS5003;63890;56.162;40.308;2022-09-29T06:16:45;7.50;7.50;4.00
74589;PMS5003;63890;56.162;40.308;2022-09-29T06:18:46;7.00;5.25;3.25
74589;PMS5003;63890;56.162;40.308;2022-09-29T06:20:47;7.75;6.75;3.25
74589;PMS5003;63890;56.162;40.308;2022-09-29T06:22:47;8.00;8.00;4.00
74589;PMS5003;63890;56.162;40.308;2022-09-29T06:24:48;8.00;8.00;5.75
74589;PMS5003;63890;56.162;40.308;2022-09-29T06:26:49;6.50;6.50;3.75
74589;PMS5003;63890;56.162;40.308;2022-09-29T06:28:49;8.50;7.75;3.75
74589;PMS5003;63890;56.162;40.308;2022-09-29T06:30:50;5.50;5.00;3.25
74589;PMS5003;63890;56.162;40.308;2022-09-29T06:32:50;8.00;7.00;4.00
74589;PMS5003;63890;56.162;40.308;2022-09-29T06:34:50;8.25;7.25;4.25
74589;PMS5003;63890;56.162;40.308;2022-09-29T06:37:09;6.25;6.25;4.00
74589;PMS5003;63890;56.162;40.308;2022-09-29T06:39:28;7.50;7.50;4.00
74589;PMS5003;63890;56.162;40.308;2022-09-29T06:41:29;8.00;8.00;5.00
74589;PMS5003;63890;56.162;40.308;2022-09-29T06:43:30;9.25;8.25;4.00
74589;PMS5003;63890;56.162;40.308;2022-09-29T06:45:30;6.00;6.00;3.75
74589;PMS5003;63890;56.162;40.308;2022-09-29T06:47:30;6.00;6.00;4.00
74589;PMS5003;63890;56.162;40.308;2022-09-29T06:49:31;5.25;5.25;3.25
74589;PMS5003;63890;56.162;40.308;2022-09-29T06:51:31;7.50;5.50;3.75
74589;PMS5003;63890;56.162;40.308;2022-09-29T06:53:31;6.00;6.00;4.00
74589;PMS5003;63890;56.162;40.308;2022-09-29T06:55:32;9.00;8.50;4.50
74589;PMS5003;63890;56.162;40.308;2022-09-29T06:57:32;7.50;7.50;4.50
74589;PMS5003;63890;56.162;40.308;2022-09-29T06:59:32;6.25;6.25;5.00
74589;PMS5003;63890;56.162;40.308;2022-09-29T07:01:33;3.50;3.50;2.25
74589;PMS5003;63890;56.162;40.308;2022-09-29T07:03:34;6.00;6.00;3.50
74589;PMS5003;63890;56.162;40.308;2022-09-29T07:05:34;8.25;8.25;4.50
74589;PMS5003;63890;56.162;40.308;2022-09-29T07:07:34;6.00;4.75;3.25
74589;PMS5003;63890;56.162;40.308;2022-09-29T07:09:35;7.50;7.00;4.75
74589;PMS5003;63890;56.162;40.308;2022-09-29T07:11:35;5.00;5.00;3.00
74589;PMS5003;63890;56.162;40.308;2022-09-29T07:13:38;8.50;8.00;4.00
74589;PMS5003;63890;56.162;40.308;2022-09-29T07:15:39;8.75;8.75;4.75
74589;PMS5003;63890;56.162;40.308;2022-09-29T07:17:39;6.75;5.00;4.00
74589;PMS5003;63890;56.162;40.308;2022-09-29T07:19:39;6.25;6.25;4.00
74589;PMS5003;63890;56.162;40.308;2022-09-29T07:21:40;5.25;5.00;3.00
74589;PMS5003;63890;56.162;40.308;2022-09-29T07:23:40;8.75;7.50;3.75
74589;PMS5003;63890;56.162;40.308;2022-09-29T07:25:41;9.50;6.75;2.75
74589;PMS5003;63890;56.162;40.308;2022-09-29T07:27:41;8.75;8.75;5.00
74589;PMS5003;63890;56.162;40.308;2022-09-29T07:29:42;8.00;8.00;4.50
74589;PMS5003;63890;56.162;40.308;2022-09-29T07:31:42;8.50;8.50;4.00
74589;PMS5003;63890;56.162;40.308;2022-09-29T07:33:45;8.00;7.00;4.00
74589;PMS5003;63890;56.162;40.308;2022-09-29T07:35:46;7.50;4.75;2.75
74589;PMS5003;63890;56.162;40.308;2022-09-29T07:37:51;10.00;7.00;2.50
74589;PMS5003;63890;56.162;40.308;2022-09-29T07:39:52;10.75;8.75;5.00
74589;PMS5003;63890;56.162;40.308;2022-09-29T07:41:53;11.00;8.75;5.00
74589;PMS5003;63890;56.162;40.308;2022-09-29T07:43:54;8.25;6.25;5.75
74589;PMS5003;63890;56.162;40.308;2022-09-29T07:46:38;16.00;9.25;6.00
74589;PMS5003;63890;56.162;40.308;2022-09-29T07:48:39;13.50;9.75;6.00
74589;PMS5003;63890;56.162;40.308;2022-09-29T07:50:40;18.00;11.50;6.25
74589;PMS5003;63890;56.162;40.308;2022-09-29T07:52:40;15.50;9.25;4.75
74589;PMS5003;63890;56.162;40.308;2022-09-29T07:54:40;13.25;9.00;4.75
74589;PMS5003;63890;56.162;40.308;2022-09-29T07:56:41;14.25;9.50;6.00
74589;PMS5003;63890;56.162;40.308;2022-09-29T07:58:41;13.50;12.75;5.75
74589;PMS5003;63890;56.162;40.308;2022-09-29T08:00:41;11.75;8.50;4.75
74589;PMS5003;63890;56.162;40.308;2022-09-29T08:02:42;13.50;10.25;3.00
74589;PMS5003;63890;56.162;40.308;2022-09-29T08:04:43;30.50;17.25;7.25
74589;PMS5003;63890;56.162;40.308;2022-09-29T08:06:43;23.25;13.75;6.50
74589;PMS5003;63890;56.162;40.308;2022-09-29T08:08:45;20.25;15.00;8.00
74589;PMS5003;63890;56.162;40.308;2022-09-29T08:10:45;24.00;14.50;7.00
74589;PMS5003;63890;56.162;40.308;2022-09-29T08:12:46;17.00;8.75;5.75
74589;PMS5003;63890;56.162;40.308;2022-09-29T08:14:46;16.75;10.25;5.00
74589;PMS5003;63890;56.162;40.308;2022-09-29T08:16:48;22.75;14.25;7.50
74589;PMS5003;63890;56.162;40.308;2022-09-29T08:18:48;23.75;15.75;6.00
74589;PMS5003;63890;56.162;40.308;2022-09-29T08:20:49;16.00;12.25;5.50
74589;PMS5003;63890;56.162;40.308;2022-09-29T08:22:50;12.00;9.75;5.00
74589;PMS5003;63890;56.162;40.308;2022-09-29T08:24:50;17.25;8.50;5.00
74589;PMS5003;63890;56.162;40.308;2022-09-29T08:26:50;14.00;11.00;5.25
74589;PMS5003;63890;56.162;40.308;2022-09-29T08:28:51;16.25;7.50;5.00
74589;PMS5003;63890;56.162;40.308;2022-09-29T08:30:51;12.00;7.75;4.00
74589;PMS5003;63890;56.162;40.308;2022-09-29T08:32:52;14.00;8.50;4.50
74589;PMS5003;63890;56.162;40.308;2022-09-29T08:34:53;16.25;10.25;4.00
74589;PMS5003;63890;56.162;40.308;2022-09-29T08:36:53;16.50;9.25;5.00
74589;PMS5003;63890;56.162;40.308;2022-09-29T08:38:55;14.25;7.00;2.75
74589;PMS5003;63890;56.162;40.308;2022-09-29T08:40:56;14.00;11.50;5.50
74589;PMS5003;63890;56.162;40.308;2022-09-29T08:45:03;17.00;11.25;6.25
74589;PMS5003;63890;56.162;40.308;2022-09-29T08:49:12;13.25;9.75;6.25
74589;PMS5003;63890;56.162;40.308;2022-09-29T08:51:23;11.50;8.00;5.00
74589;PMS5003;63890;56.162;40.308;2022-09-29T08:53:25;10.50;6.00;2.00
74589;PMS5003;63890;56.162;40.308;2022-09-29T08:55:31;16.25;7.00;4.00
74589;PMS5003;63890;56.162;40.308;2022-09-29T08:57:33;12.25;9.00;5.00
74589;PMS5003;63890;56.162;40.308;2022-09-29T08:59:35;10.25;9.00;5.50
74589;PMS5003;63890;56.162;40.308;2022-09-29T09:06:16;12.25;10.00;5.75
74589;PMS5003;63890;56.162;40.308;2022-09-29T09:10:53;13.00;8.00;4.00
74589;PMS5003;63890;56.162;40.308;2022-09-29T09:17:23;10.00;8.75;4.00
74589;PMS5003;63890;56.162;40.308;2022-09-29T09:19:32;12.50;10.00;5.00
74589;PMS5003;63890;56.162;40.308;2022-09-29T09:21:41;11.40;7.40;3.20
74589;PMS5003;63890;56.162;40.308;2022-09-29T09:24:02;3.00;1.25;0.50
74589;PMS5003;63890;56.162;40.308;2022-09-29T09:26:05;14.50;10.00;5.00
74589;PMS5003;63890;56.162;40.308;2022-09-29T09:30:15;15.00;10.75;5.25
74589;PMS5003;63890;56.162;40.308;2022-09-29T09:32:21;13.75;9.75;5.00
74589;PMS5003;63890;56.162;40.308;2022-09-29T09:34:36;14.75;7.75;5.00
74589;PMS5003;63890;56.162;40.308;2022-09-29T09:37:22;25.75;11.25;6.75
74589;PMS5003;63890;56.162;40.308;2022-09-29T09:39:24;25.00;11.00;6.00
74589;PMS5003;63890;56.162;40.308;2022-09-29T09:41:25;22.75;13.50;6.75
74589;PMS5003;63890;56.162;40.308;2022-09-29T09:43:36;23.00;13.00;6.25
74589;PMS5003;63890;56.162;40.308;2022-09-29T09:45:45;26.00;13.50;7.00
74589;PMS5003;63890;56.162;40.308;2022-09-29T09:47:49;20.50;13.75;8.00
74589;PMS5003;63890;56.162;40.308;2022-09-29T09:50:02;24.00;11.50;5.25
74589;PMS5003;63890;56.162;40.308;2022-09-29T09:54:05;14.25;8.00;4.00
74589;PMS5003;63890;56.162;40.308;2022-09-29T09:56:14;33.25;14.50;7.50
74589;PMS5003;63890;56.162;40.308;2022-09-29T09:58:34;19.00;11.50;6.00
74589;PMS5003;63890;56.162;40.308;2022-09-29T10:02:49;33.00;12.25;5.75
74589;PMS5003;63890;56.162;40.308;2022-09-29T10:04:50;20.75;12.75;4.00
74589;PMS5003;63890;56.162;40.308;2022-09-29T10:06:51;29.00;14.00;4.75
74589;PMS5003;63890;56.162;40.308;2022-09-29T10:08:52;26.00;14.25;6.50
74589;PMS5003;63890;56.162;40.308;2022-09-29T10:10:53;22.25;13.50;6.75
74589;PMS5003;63890;56.162;40.308;2022-09-29T10:13:14;24.25;12.50;6.00
74589;PMS5003;63890;56.162;40.308;2022-09-29T10:15:16;28.25;12.25;6.00
74589;PMS5003;63890;56.162;40.308;2022-09-29T10:17:18;29.75;17.00;9.00
74589;PMS5003;63890;56.162;40.308;2022-09-29T10:19:21;35.25;16.50;5.75
74589;PMS5003;63890;56.162;40.308;2022-09-29T10:21:33;25.50;17.25;7.75
74589;PMS5003;63890;56.162;40.308;2022-09-29T10:23:35;27.25;12.00;6.50
74589;PMS5003;63890;56.162;40.308;2022-09-29T10:25:35;38.50;17.25;7.00
74589;PMS5003;63890;56.162;40.308;2022-09-29T10:27:39;42.00;18.25;8.25
74589;PMS5003;63890;56.162;40.308;2022-09-29T10:29:41;24.00;12.50;7.25
74589;PMS5003;63890;56.162;40.308;2022-09-29T10:31:42;20.00;13.00;5.00
74589;PMS5003;63890;56.162;40.308;2022-09-29T10:33:53;29.50;20.00;7.50
74589;PMS5003;63890;56.162;40.308;2022-09-29T10:36:07;34.00;14.00;5.00
74589;PMS5003;63890;56.162;40.308;2022-09-29T10:38:24;24.00;13.50;5.50
74589;PMS5003;63890;56.162;40.308;2022-09-29T10:40:25;19.50;11.00;4.00
74589;PMS5003;63890;56.162;40.308;2022-09-29T10:42:36;30.25;13.00;6.00
74589;PMS5003;63890;56.162;40.308;2022-09-29T10:44:37;29.00;13.00;5.00
74589;PMS5003;63890;56.162;40.308;2022-09-29T10:46:53;19.50;12.00;5.00
74589;PMS5003;63890;56.162;40.308;2022-09-29T10:51:15;23.00;10.00;5.00
74589;PMS5003;63890;56.162;40.308;2022-09-29T10:55:34;15.00;9.00;5.00
74589;PMS5003;63890;56.162;40.308;2022-09-29T10:57:35;19.00;11.50;6.00
74589;PMS5003;63890;56.162;40.308;2022-09-29T10:59:45;21.75;10.00;5.25
74589;PMS5003;63890;56.162;40.308;2022-09-29T11:01:57;17.25;11.00;6.00
74589;PMS5003;63890;56.162;40.308;2022-09-29T11:04:03;17.25;11.00;4.25
74589;PMS5003;63890;56.162;40.308;2022-09-29T11:06:13;13.50;8.00;4.50
74589;PMS5003;63890;56.162;40.308;2022-09-29T11:08:15;12.50;8.25;4.00
74589;PMS5003;63890;56.162;40.308;2022-09-29T11:10:28;10.75;5.75;3.50
74589;PMS5003;63890;56.162;40.308;2022-09-29T11:12:33;20.75;18.00;12.00
74589;PMS5003;63890;56.162;40.308;2022-09-29T11:16:36;7.75;6.25;5.00
74589;PMS5003;63890;56.162;40.308;2022-09-29T11:18:37;13.00;10.50;7.00
74589;PMS5003;63890;56.162;40.308;2022-09-29T11:20:38;12.50;9.50;6.25
74589;PMS5003;63890;56.162;40.308;2022-09-29T11:24:49;7.25;7.00;4.25
74589;PMS5003;63890;56.162;40.308;2022-09-29T11:26:58;8.75;6.00;3.00
74589;PMS5003;63890;56.162;40.308;2022-09-29T11:40:02;12.00;9.50;6.00
74589;PMS5003;63890;56.162;40.308;2022-09-29T11:46:20;8.50;7.00;4.00
74589;PMS5003;63890;56.162;40.308;2022-09-29T11:57:03;9.50;6.25;4.00
74589;PMS5003;63890;56.162;40.308;2022-09-29T12:01:24;18.00;9.50;5.50
74589;PMS5003;63890;56.162;40.308;2022-09-29T12:16:09;17.75;12.00;6.00
74589;PMS5003;63890;56.162;40.308;2022-09-29T12:18:13;19.75;11.75;5.75
74589;PMS5003;63890;56.162;40.308;2022-09-29T12:20:27;16.25;10.50;5.25
74589;PMS5003;63890;56.162;40.308;2022-09-29T12:22:29;13.75;9.50;6.00
74589;PMS5003;63890;56.162;40.308;2022-09-29T12:26:30;14.25;11.50;7.25
74589;PMS5003;63890;56.162;40.308;2022-09-29T12:28:34;15.50;9.00;5.25
74589;PMS5003;63890;56.162;40.308;2022-09-29T12:30:45;14.25;8.00;3.75
74589;PMS5003;63890;56.162;40.308;2022-09-29T12:32:49;18.75;9.25;4.25
74589;PMS5003;63890;56.162;40.308;2022-09-29T12:34:52;11.75;5.75;3.75
74589;PMS5003;63890;56.162;40.308;2022-09-29T12:37:02;15.25;10.25;7.25
74589;PMS5003;63890;56.162;40.308;2022-09-29T12:39:09;14.25;9.00;4.50
74589;PMS5003;63890;56.162;40.308;2022-09-29T12:41:16;7.75;6.75;4.50
74589;PMS5003;63890;56.162;40.308;2022-09-29T12:43:31;18.00;10.25;5.00
74589;PMS5003;63890;56.162;40.308;2022-09-29T12:45:36;11.00;8.00;5.00
74589;PMS5003;63890;56.162;40.308;2022-09-29T12:49:48;11.75;10.25;5.00
74589;PMS5003;63890;56.162;40.308;2022-09-29T12:51:54;14.00;10.00;5.00
74589;PMS5003;63890;56.162;40.308;2022-09-29T12:56:13;7.25;5.00;3.25
74589;PMS5003;63890;56.162;40.308;2022-09-29T12:58:36;20.50;11.00;6.00
74589;PMS5003;63890;56.162;40.308;2022-09-29T13:00:37;16.25;8.00;6.00
74589;PMS5003;63890;56.162;40.308;2022-09-29T13:09:08;10.75;10.00;6.00
74589;PMS5003;63890;56.162;40.308;2022-09-29T13:24:09;10.50;6.25;3.50
74589;PMS5003;63890;56.162;40.308;2022-09-29T13:28:29;8.25;5.00;2.50
74589;PMS5003;63890;56.162;40.308;2022-09-29T13:30:34;6.00;3.75;2.00
74589;PMS5003;63890;56.162;40.308;2022-09-29T13:32:43;8.00;7.00;5.00
74589;PMS5003;63890;56.162;40.308;2022-09-29T13:34:46;4.75;4.00;3.25
74589;PMS5003;63890;56.162;40.308;2022-09-29T13:36:49;11.00;8.00;5.50
74589;PMS5003;63890;56.162;40.308;2022-09-29T13:38:54;8.75;5.75;3.00
74589;PMS5003;63890;56.162;40.308;2022-09-29T13:41:16;8.75;6.25;4.25
74589;PMS5003;63890;56.162;40.308;2022-09-29T13:43:38;8.25;7.00;4.75
74589;PMS5003;63890;56.162;40.308;2022-09-29T13:45:39;9.00;6.50;4.25
74589;PMS5003;63890;56.162;40.308;2022-09-29T13:47:48;7.00;5.00;3.00
74589;PMS5003;63890;56.162;40.308;2022-09-29T13:49:48;7.25;5.00;3.00
74589;PMS5003;63890;56.162;40.308;2022-09-29T13:54:29;7.00;5.00;2.00
74589;PMS5003;63890;56.162;40.308;2022-09-29T13:56:22;10.50;6.25;3.25
74589;PMS5003;63890;56.162;40.308;2022-09-29T13:58:26;6.25;6.25;3.25
74589;PMS5003;63890;56.162;40.308;2022-09-29T14:00:27;5.00;5.00;4.00
74589;PMS5003;63890;56.162;40.308;2022-09-29T14:02:34;9.00;6.00;4.25
74589;PMS5003;63890;56.162;40.308;2022-09-29T14:04:43;7.00;5.75;3.50
74589;PMS5003;63890;56.162;40.308;2022-09-29T14:06:45;6.00;5.00;3.00
74589;PMS5003;63890;56.162;40.308;2022-09-29T14:10:48;4.50;4.50;3.00
74589;PMS5003;63890;56.162;40.308;2022-09-29T14:13:00;6.25;3.50;2.25
74589;PMS5003;63890;56.162;40.308;2022-09-29T14:15:02;6.00;5.00;3.00
74589;PMS5003;63890;56.162;40.308;2022-09-29T14:17:04;7.75;6.50;3.00
74589;PMS5003;63890;56.162;40.308;2022-09-29T14:19:20;6.75;5.75;3.75